sensor_id;sensor_type;location;lat;lon;timestamp;P1;durP1;ratioP1;P2;durP2;ratioP2
8165;SDS011;4124;50.856;3.634;2022-09-03T00:00:32;4.90;;;4.40;;
8165;SDS011;4124;50.856;3.634;2022-09-03T00:08:20;4.40;;;4.00;;
8165;SDS011;4124;50.856;3.634;2022-09-03T00:10:52;4.33;;;3.83;;
8165;SDS011;4124;50.856;3.634;2022-09-03T00:13:21;4.70;;;4.23;;
8165;SDS011;4124;50.856;3.634;2022-09-03T00:15:47;4.53;;;4.13;;
8165;SDS011;4124;50.856;3.634;2022-09-03T00:18:15;4.70;;;4.27;;
8165;SDS011;4124;50.856;3.634;2022-09-03T00:20:44;5.57;;;4.47;;
8165;SDS011;4124;50.856;3.634;2022-09-03T00:23:13;4.37;;;3.97;;
8165;SDS011;4124;50.856;3.634;2022-09-03T00:25:48;4.77;;;4.27;;
8165;SDS011;4124;50.856;3.634;2022-09-03T00:28:18;4.53;;;4.13;;
8165;SDS011;4124;50.856;3.634;2022-09-03T00:30:45;4.80;;;4.40;;
8165;SDS011;4124;50.856;3.634;2022-09-03T00:33:12;5.60;;;4.50;;
8165;SDS011;4124;50.856;3.634;2022-09-03T00:35:47;4.57;;;4.13;;
8165;SDS011;4124;50.856;3.634;2022-09-03T00:38:14;5.00;;;4.10;;
8165;SDS011;4124;50.856;3.634;2022-09-03T00:48:05;4.73;;;4.30;;
8165;SDS011;4124;50.856;3.634;2022-09-03T00:53:08;5.50;;;5.00;;
8165;SDS011;4124;50.856;3.634;2022-09-03T00:58:13;6.20;;;4.20;;
8165;SDS011;4124;50.856;3.634;2022-09-03T01:00:42;4.90;;;4.20;;
8165;SDS011;4124;50.856;3.634;2022-09-03T01:18:14;4.40;;;4.00;;
8165;SDS011;4124;50.856;3.634;2022-09-03T01:33:28;5.20;;;4.60;;
8165;SDS011;4124;50.856;3.634;2022-09-03T01:36:02;5.03;;;4.50;;
8165;SDS011;4124;50.856;3.634;2022-09-03T01:38:32;5.23;;;4.60;;
8165;SDS011;4124;50.856;3.634;2022-09-03T01:44:16;5.00;;;4.60;;
8165;SDS011;4124;50.856;3.634;2022-09-03T01:46:45;5.17;;;4.40;;
8165;SDS011;4124;50.856;3.634;2022-09-03T01:49:18;6.33;;;4.60;;
8165;SDS011;4124;50.856;3.634;2022-09-03T01:51:54;5.13;;;4.63;;
8165;SDS011;4124;50.856;3.634;2022-09-03T01:54:57;5.50;;;4.17;;
8165;SDS011;4124;50.856;3.634;2022-09-03T02:00:00;4.83;;;4.43;;
8165;SDS011;4124;50.856;3.634;2022-09-03T02:02:27;5.90;;;4.60;;
8165;SDS011;4124;50.856;3.634;2022-09-03T02:04:54;7.60;;;4.70;;
8165;SDS011;4124;50.856;3.634;2022-09-03T02:07:20;4.70;;;4.10;;
8165;SDS011;4124;50.856;3.634;2022-09-03T02:09:46;4.83;;;4.43;;
8165;SDS011;4124;50.856;3.634;2022-09-03T02:12:13;5.40;;;4.80;;
8165;SDS011;4124;50.856;3.634;2022-09-03T02:14:39;5.73;;;4.73;;
8165;SDS011;4124;50.856;3.634;2022-09-03T02:17:05;5.03;;;4.30;;
8165;SDS011;4124;50.856;3.634;2022-09-03T02:19:31;8.50;;;4.83;;
8165;SDS011;4124;50.856;3.634;2022-09-03T02:21:56;5.70;;;4.63;;
8165;SDS011;4124;50.856;3.634;2022-09-03T02:24:22;4.80;;;4.40;;
8165;SDS011;4124;50.856;3.634;2022-09-03T02:26:47;5.87;;;5.27;;
8165;SDS011;4124;50.856;3.634;2022-09-03T02:29:13;5.30;;;4.37;;
8165;SDS011;4124;50.856;3.634;2022-09-03T02:31:39;5.67;;;4.60;;
8165;SDS011;4124;50.856;3.634;2022-09-03T02:34:04;5.13;;;4.63;;
8165;SDS011;4124;50.856;3.634;2022-09-03T02:36:31;5.60;;;4.60;;
8165;SDS011;4124;50.856;3.634;2022-09-03T02:38:57;4.93;;;4.30;;
8165;SDS011;4124;50.856;3.634;2022-09-03T02:41:22;4.90;;;4.50;;
8165;SDS011;4124;50.856;3.634;2022-09-03T02:46:23;6.63;;;4.70;;
8165;SDS011;4124;50.856;3.634;2022-09-03T02:48:51;10.20;;;5.30;;
8165;SDS011;4124;50.856;3.634;2022-09-03T02:51:17;5.23;;;4.67;;
8165;SDS011;4124;50.856;3.634;2022-09-03T02:53:42;5.83;;;4.60;;
8165;SDS011;4124;50.856;3.634;2022-09-03T02:56:07;6.13;;;4.50;;
8165;SDS011;4124;50.856;3.634;2022-09-03T02:58:33;4.50;;;4.10;;
8165;SDS011;4124;50.856;3.634;2022-09-03T03:00:58;4.77;;;4.37;;
8165;SDS011;4124;50.856;3.634;2022-09-03T03:03:23;4.83;;;4.33;;
8165;SDS011;4124;50.856;3.634;2022-09-03T03:05:50;6.77;;;4.67;;
8165;SDS011;4124;50.856;3.634;2022-09-03T03:08:16;4.93;;;4.43;;
8165;SDS011;4124;50.856;3.634;2022-09-03T03:10:45;6.27;;;4.47;;
8165;SDS011;4124;50.856;3.634;2022-09-03T03:13:10;4.40;;;4.00;;
8165;SDS011;4124;50.856;3.634;2022-09-03T03:15:35;5.50;;;4.70;;
8165;SDS011;4124;50.856;3.634;2022-09-03T03:18:01;5.17;;;4.60;;
8165;SDS011;4124;50.856;3.634;2022-09-03T03:20:26;5.13;;;3.80;;
8165;SDS011;4124;50.856;3.634;2022-09-03T03:22:51;5.20;;;3.83;;
8165;SDS011;4124;50.856;3.634;2022-09-03T03:25:17;5.23;;;4.73;;
8165;SDS011;4124;50.856;3.634;2022-09-03T03:27:42;4.60;;;3.90;;
8165;SDS011;4124;50.856;3.634;2022-09-03T03:30:08;4.60;;;4.20;;
8165;SDS011;4124;50.856;3.634;2022-09-03T03:32:34;5.10;;;3.97;;
8165;SDS011;4124;50.856;3.634;2022-09-03T03:34:59;5.50;;;4.10;;
8165;SDS011;4124;50.856;3.634;2022-09-03T03:37:24;5.50;;;4.33;;
8165;SDS011;4124;50.856;3.634;2022-09-03T03:39:50;7.77;;;4.60;;
8165;SDS011;4124;50.856;3.634;2022-09-03T03:42:15;5.40;;;4.30;;
8165;SDS011;4124;50.856;3.634;2022-09-03T03:44:40;5.70;;;4.40;;
8165;SDS011;4124;50.856;3.634;2022-09-03T03:47:07;5.43;;;4.50;;
8165;SDS011;4124;50.856;3.634;2022-09-03T03:49:33;6.37;;;4.57;;
8165;SDS011;4124;50.856;3.634;2022-09-03T03:51:58;4.83;;;4.20;;
8165;SDS011;4124;50.856;3.634;2022-09-03T03:54:23;5.43;;;4.77;;
8165;SDS011;4124;50.856;3.634;2022-09-03T03:56:49;4.80;;;4.40;;
8165;SDS011;4124;50.856;3.634;2022-09-03T03:59:14;5.30;;;4.30;;
8165;SDS011;4124;50.856;3.634;2022-09-03T04:01:39;5.97;;;4.37;;
8165;SDS011;4124;50.856;3.634;2022-09-03T04:04:04;5.40;;;4.63;;
8165;SDS011;4124;50.856;3.634;2022-09-03T04:06:30;5.47;;;4.33;;
8165;SDS011;4124;50.856;3.634;2022-09-03T04:08:55;4.73;;;4.30;;
8165;SDS011;4124;50.856;3.634;2022-09-03T04:11:21;7.67;;;4.40;;
8165;SDS011;4124;50.856;3.634;2022-09-03T04:13:47;6.67;;;4.70;;
8165;SDS011;4124;50.856;3.634;2022-09-03T04:16:13;5.00;;;4.27;;
8165;SDS011;4124;50.856;3.634;2022-09-03T04:18:39;5.00;;;4.00;;
8165;SDS011;4124;50.856;3.634;2022-09-03T04:21:06;8.20;;;4.20;;
8165;SDS011;4124;50.856;3.634;2022-09-03T04:23:32;5.30;;;4.00;;
8165;SDS011;4124;50.856;3.634;2022-09-03T04:25:57;4.73;;;4.33;;
8165;SDS011;4124;50.856;3.634;2022-09-03T04:28:22;7.30;;;4.17;;
8165;SDS011;4124;50.856;3.634;2022-09-03T04:30:48;5.70;;;4.00;;
8165;SDS011;4124;50.856;3.634;2022-09-03T04:33:13;5.17;;;4.67;;
8165;SDS011;4124;50.856;3.634;2022-09-03T04:35:39;6.00;;;4.53;;
8165;SDS011;4124;50.856;3.634;2022-09-03T04:38:06;8.77;;;7.20;;
8165;SDS011;4124;50.856;3.634;2022-09-03T04:40:31;6.30;;;5.50;;
8165;SDS011;4124;50.856;3.634;2022-09-03T04:42:57;5.97;;;5.37;;
8165;SDS011;4124;50.856;3.634;2022-09-03T04:45:23;5.40;;;4.90;;
8165;SDS011;4124;50.856;3.634;2022-09-03T04:47:55;7.57;;;5.33;;
8165;SDS011;4124;50.856;3.634;2022-09-03T04:50:21;6.87;;;4.30;;
8165;SDS011;4124;50.856;3.634;2022-09-03T04:52:47;4.97;;;4.50;;
8165;SDS011;4124;50.856;3.634;2022-09-03T04:55:12;5.53;;;4.97;;
8165;SDS011;4124;50.856;3.634;2022-09-03T04:57:37;6.07;;;4.37;;
8165;SDS011;4124;50.856;3.634;2022-09-03T05:00:03;6.33;;;5.40;;
8165;SDS011;4124;50.856;3.634;2022-09-03T05:02:29;5.43;;;4.57;;
8165;SDS011;4124;50.856;3.634;2022-09-03T05:04:54;6.80;;;4.97;;
8165;SDS011;4124;50.856;3.634;2022-09-03T05:07:19;5.00;;;4.50;;
8165;SDS011;4124;50.856;3.634;2022-09-03T05:09:45;9.53;;;4.60;;
8165;SDS011;4124;50.856;3.634;2022-09-03T05:12:10;5.17;;;4.77;;
8165;SDS011;4124;50.856;3.634;2022-09-03T05:14:37;7.53;;;4.77;;
8165;SDS011;4124;50.856;3.634;2022-09-03T05:17:02;5.87;;;5.23;;
8165;SDS011;4124;50.856;3.634;2022-09-03T05:19:27;5.80;;;5.10;;
8165;SDS011;4124;50.856;3.634;2022-09-03T05:21:53;6.57;;;5.00;;
8165;SDS011;4124;50.856;3.634;2022-09-03T05:24:18;7.07;;;5.07;;
8165;SDS011;4124;50.856;3.634;2022-09-03T05:26:43;5.43;;;4.93;;
8165;SDS011;4124;50.856;3.634;2022-09-03T05:29:09;5.70;;;5.10;;
8165;SDS011;4124;50.856;3.634;2022-09-03T05:31:35;5.97;;;5.03;;
8165;SDS011;4124;50.856;3.634;2022-09-03T05:34:02;7.27;;;5.27;;
8165;SDS011;4124;50.856;3.634;2022-09-03T05:36:29;4.90;;;4.43;;
8165;SDS011;4124;50.856;3.634;2022-09-03T05:38:56;7.07;;;5.60;;
8165;SDS011;4124;50.856;3.634;2022-09-03T05:41:22;5.53;;;5.00;;
8165;SDS011;4124;50.856;3.634;2022-09-03T05:43:48;6.43;;;5.60;;
8165;SDS011;4124;50.856;3.634;2022-09-03T05:46:19;5.67;;;5.17;;
8165;SDS011;4124;50.856;3.634;2022-09-03T05:48:44;6.00;;;5.40;;
8165;SDS011;4124;50.856;3.634;2022-09-03T05:51:10;6.07;;;5.37;;
8165;SDS011;4124;50.856;3.634;2022-09-03T05:53:36;7.80;;;5.73;;
8165;SDS011;4124;50.856;3.634;2022-09-03T05:56:09;5.93;;;5.13;;
8165;SDS011;4124;50.856;3.634;2022-09-03T05:58:38;6.63;;;4.97;;
8165;SDS011;4124;50.856;3.634;2022-09-03T06:01:23;12.80;;;9.13;;
8165;SDS011;4124;50.856;3.634;2022-09-03T06:03:56;14.27;;;10.23;;
8165;SDS011;4124;50.856;3.634;2022-09-03T06:06:22;13.37;;;11.03;;
8165;SDS011;4124;50.856;3.634;2022-09-03T06:08:54;14.77;;;11.77;;
8165;SDS011;4124;50.856;3.634;2022-09-03T06:11:20;15.80;;;11.50;;
8165;SDS011;4124;50.856;3.634;2022-09-03T06:13:46;15.40;;;11.77;;
8165;SDS011;4124;50.856;3.634;2022-09-03T06:16:12;19.43;;;13.17;;
8165;SDS011;4124;50.856;3.634;2022-09-03T06:18:37;15.40;;;11.87;;
8165;SDS011;4124;50.856;3.634;2022-09-03T06:21:03;15.77;;;12.63;;
8165;SDS011;4124;50.856;3.634;2022-09-03T06:23:29;14.73;;;13.17;;
8165;SDS011;4124;50.856;3.634;2022-09-03T06:26:05;16.73;;;12.20;;
8165;SDS011;4124;50.856;3.634;2022-09-03T06:28:34;17.40;;;12.90;;
8165;SDS011;4124;50.856;3.634;2022-09-03T06:31:00;14.23;;;12.60;;
8165;SDS011;4124;50.856;3.634;2022-09-03T06:33:29;16.03;;;12.43;;
8165;SDS011;4124;50.856;3.634;2022-09-03T06:35:58;18.20;;;13.87;;
8165;SDS011;4124;50.856;3.634;2022-09-03T06:38:24;15.43;;;12.60;;
8165;SDS011;4124;50.856;3.634;2022-09-03T06:40:56;14.30;;;12.80;;
8165;SDS011;4124;50.856;3.634;2022-09-03T06:43:22;17.47;;;12.47;;
8165;SDS011;4124;50.856;3.634;2022-09-03T06:45:52;13.90;;;12.17;;
8165;SDS011;4124;50.856;3.634;2022-09-03T06:48:17;15.10;;;12.43;;
8165;SDS011;4124;50.856;3.634;2022-09-03T06:50:42;24.23;;;13.40;;
8165;SDS011;4124;50.856;3.634;2022-09-03T06:53:08;15.60;;;11.63;;
8165;SDS011;4124;50.856;3.634;2022-09-03T06:55:33;14.07;;;11.13;;
8165;SDS011;4124;50.856;3.634;2022-09-03T06:57:59;14.60;;;10.80;;
8165;SDS011;4124;50.856;3.634;2022-09-03T07:00:24;18.10;;;12.20;;
8165;SDS011;4124;50.856;3.634;2022-09-03T07:02:54;16.20;;;13.27;;
8165;SDS011;4124;50.856;3.634;2022-09-03T07:05:22;12.70;;;10.90;;
8165;SDS011;4124;50.856;3.634;2022-09-03T07:07:50;11.53;;;10.33;;
8165;SDS011;4124;50.856;3.634;2022-09-03T07:10:15;12.50;;;9.73;;
8165;SDS011;4124;50.856;3.634;2022-09-03T07:12:44;11.47;;;9.30;;
8165;SDS011;4124;50.856;3.634;2022-09-03T07:15:10;13.93;;;9.50;;
8165;SDS011;4124;50.856;3.634;2022-09-03T07:17:36;13.20;;;8.67;;
8165;SDS011;4124;50.856;3.634;2022-09-03T07:20:01;19.70;;;8.70;;
8165;SDS011;4124;50.856;3.634;2022-09-03T07:22:27;16.13;;;7.10;;
8165;SDS011;4124;50.856;3.634;2022-09-03T07:24:52;9.40;;;7.33;;
8165;SDS011;4124;50.856;3.634;2022-09-03T07:27:17;8.47;;;6.90;;
8165;SDS011;4124;50.856;3.634;2022-09-03T07:29:42;8.43;;;6.70;;
8165;SDS011;4124;50.856;3.634;2022-09-03T07:32:07;8.67;;;7.77;;
8165;SDS011;4124;50.856;3.634;2022-09-03T07:34:33;8.57;;;6.77;;
8165;SDS011;4124;50.856;3.634;2022-09-03T07:36:59;10.70;;;6.90;;
8165;SDS011;4124;50.856;3.634;2022-09-03T07:39:24;7.33;;;6.63;;
8165;SDS011;4124;50.856;3.634;2022-09-03T07:41:50;9.13;;;6.30;;
8165;SDS011;4124;50.856;3.634;2022-09-03T07:44:15;9.63;;;7.40;;
8165;SDS011;4124;50.856;3.634;2022-09-03T07:46:43;7.33;;;6.53;;
8165;SDS011;4124;50.856;3.634;2022-09-03T07:49:10;9.27;;;6.57;;
8165;SDS011;4124;50.856;3.634;2022-09-03T07:51:36;6.83;;;6.13;;
8165;SDS011;4124;50.856;3.634;2022-09-03T07:54:02;9.73;;;6.27;;
8165;SDS011;4124;50.856;3.634;2022-09-03T07:56:28;10.00;;;5.97;;
8165;SDS011;4124;50.856;3.634;2022-09-03T07:58:56;9.53;;;5.80;;
8165;SDS011;4124;50.856;3.634;2022-09-03T08:01:22;8.03;;;5.63;;
8165;SDS011;4124;50.856;3.634;2022-09-03T08:03:49;10.33;;;6.50;;
8165;SDS011;4124;50.856;3.634;2022-09-03T08:06:15;8.23;;;5.80;;
8165;SDS011;4124;50.856;3.634;2022-09-03T08:08:41;8.33;;;5.57;;
8165;SDS011;4124;50.856;3.634;2022-09-03T08:11:07;6.50;;;5.80;;
8165;SDS011;4124;50.856;3.634;2022-09-03T08:13:35;6.90;;;5.47;;
8165;SDS011;4124;50.856;3.634;2022-09-03T08:16:00;9.23;;;5.80;;
8165;SDS011;4124;50.856;3.634;2022-09-03T08:18:25;8.60;;;6.00;;
8165;SDS011;4124;50.856;3.634;2022-09-03T08:20:51;8.03;;;5.70;;
8165;SDS011;4124;50.856;3.634;2022-09-03T08:23:16;15.87;;;6.43;;
8165;SDS011;4124;50.856;3.634;2022-09-03T08:25:41;6.43;;;5.83;;
8165;SDS011;4124;50.856;3.634;2022-09-03T08:28:07;9.73;;;6.13;;
8165;SDS011;4124;50.856;3.634;2022-09-03T08:30:32;7.30;;;6.40;;
8165;SDS011;4124;50.856;3.634;2022-09-03T08:33:00;6.00;;;5.40;;
8165;SDS011;4124;50.856;3.634;2022-09-03T08:35:25;6.90;;;5.70;;
8165;SDS011;4124;50.856;3.634;2022-09-03T08:37:50;10.93;;;5.43;;
8165;SDS011;4124;50.856;3.634;2022-09-03T08:40:17;8.10;;;6.67;;
8165;SDS011;4124;50.856;3.634;2022-09-03T08:42:48;8.63;;;6.27;;
8165;SDS011;4124;50.856;3.634;2022-09-03T08:45:16;8.20;;;6.43;;
8165;SDS011;4124;50.856;3.634;2022-09-03T08:47:44;10.50;;;6.30;;
8165;SDS011;4124;50.856;3.634;2022-09-03T08:50:22;11.13;;;6.20;;
8165;SDS011;4124;50.856;3.634;2022-09-03T08:58:04;9.23;;;6.10;;
8165;SDS011;4124;50.856;3.634;2022-09-03T09:03:19;9.30;;;6.23;;
8165;SDS011;4124;50.856;3.634;2022-09-03T09:05:48;12.50;;;5.87;;
8165;SDS011;4124;50.856;3.634;2022-09-03T09:10:48;5.73;;;5.23;;
8165;SDS011;4124;50.856;3.634;2022-09-03T09:21:06;6.23;;;5.63;;
8165;SDS011;4124;50.856;3.634;2022-09-03T09:23:33;8.73;;;5.17;;
8165;SDS011;4124;50.856;3.634;2022-09-03T09:26:01;8.00;;;6.00;;
8165;SDS011;4124;50.856;3.634;2022-09-03T09:28:29;119.67;;;8.60;;
8165;SDS011;4124;50.856;3.634;2022-09-03T09:30:57;12.87;;;6.43;;
8165;SDS011;4124;50.856;3.634;2022-09-03T09:33:22;13.13;;;6.43;;
8165;SDS011;4124;50.856;3.634;2022-09-03T09:35:48;7.60;;;5.73;;
8165;SDS011;4124;50.856;3.634;2022-09-03T09:38:14;10.50;;;5.83;;
8165;SDS011;4124;50.856;3.634;2022-09-03T09:40:40;10.60;;;6.27;;
8165;SDS011;4124;50.856;3.634;2022-09-03T09:45:41;10.47;;;5.60;;
8165;SDS011;4124;50.856;3.634;2022-09-03T09:48:08;9.27;;;5.87;;
8165;SDS011;4124;50.856;3.634;2022-09-03T09:50:35;6.90;;;6.03;;
8165;SDS011;4124;50.856;3.634;2022-09-03T09:53:01;12.60;;;6.17;;
8165;SDS011;4124;50.856;3.634;2022-09-03T09:55:29;8.50;;;6.50;;
8165;SDS011;4124;50.856;3.634;2022-09-03T09:58:04;8.87;;;5.70;;
8165;SDS011;4124;50.856;3.634;2022-09-03T10:00:30;9.00;;;6.10;;
8165;SDS011;4124;50.856;3.634;2022-09-03T10:02:58;7.40;;;6.60;;
8165;SDS011;4124;50.856;3.634;2022-09-03T10:05:24;8.40;;;6.20;;
8165;SDS011;4124;50.856;3.634;2022-09-03T10:07:54;6.73;;;6.00;;
8165;SDS011;4124;50.856;3.634;2022-09-03T10:10:20;8.10;;;6.63;;
8165;SDS011;4124;50.856;3.634;2022-09-03T10:12:47;7.93;;;6.53;;
8165;SDS011;4124;50.856;3.634;2022-09-03T10:15:20;7.50;;;5.53;;
8165;SDS011;4124;50.856;3.634;2022-09-03T10:20:50;7.27;;;6.17;;
8165;SDS011;4124;50.856;3.634;2022-09-03T10:23:24;7.53;;;5.47;;
8165;SDS011;4124;50.856;3.634;2022-09-03T10:26:01;7.33;;;5.50;;
8165;SDS011;4124;50.856;3.634;2022-09-03T10:28:31;8.13;;;4.83;;
8165;SDS011;4124;50.856;3.634;2022-09-03T10:31:03;6.60;;;5.30;;
8165;SDS011;4124;50.856;3.634;2022-09-03T10:33:39;6.97;;;5.60;;
8165;SDS011;4124;50.856;3.634;2022-09-03T10:38:34;5.87;;;5.20;;
8165;SDS011;4124;50.856;3.634;2022-09-03T10:44:09;10.87;;;4.47;;
8165;SDS011;4124;50.856;3.634;2022-09-03T10:46:48;6.47;;;4.93;;
8165;SDS011;4124;50.856;3.634;2022-09-03T10:51:48;5.80;;;4.20;;
8165;SDS011;4124;50.856;3.634;2022-09-03T10:54:28;5.30;;;4.67;;
8165;SDS011;4124;50.856;3.634;2022-09-03T10:56:59;6.80;;;5.37;;
8165;SDS011;4124;50.856;3.634;2022-09-03T11:02:18;5.63;;;5.03;;
8165;SDS011;4124;50.856;3.634;2022-09-03T11:04:50;5.87;;;4.47;;
8165;SDS011;4124;50.856;3.634;2022-09-03T11:07:19;7.33;;;4.80;;
8165;SDS011;4124;50.856;3.634;2022-09-03T11:09:54;5.33;;;4.60;;
8165;SDS011;4124;50.856;3.634;2022-09-03T11:14:55;6.87;;;5.37;;
8165;SDS011;4124;50.856;3.634;2022-09-03T11:17:28;5.57;;;4.87;;
8165;SDS011;4124;50.856;3.634;2022-09-03T11:20:14;5.40;;;4.87;;
8165;SDS011;4124;50.856;3.634;2022-09-03T11:22:40;7.57;;;4.70;;
8165;SDS011;4124;50.856;3.634;2022-09-03T11:25:08;6.97;;;5.30;;
8165;SDS011;4124;50.856;3.634;2022-09-03T11:30:06;5.13;;;4.60;;
8165;SDS011;4124;50.856;3.634;2022-09-03T11:34:57;5.50;;;4.90;;
8165;SDS011;4124;50.856;3.634;2022-09-03T11:37:24;5.60;;;4.43;;
8165;SDS011;4124;50.856;3.634;2022-09-03T11:40:32;6.40;;;4.60;;
8165;SDS011;4124;50.856;3.634;2022-09-03T11:42:41;5.87;;;5.30;;
8165;SDS011;4124;50.856;3.634;2022-09-03T11:45:20;6.10;;;4.40;;
8165;SDS011;4124;50.856;3.634;2022-09-03T11:47:47;5.43;;;4.43;;
8165;SDS011;4124;50.856;3.634;2022-09-03T11:50:28;5.33;;;4.70;;
8165;SDS011;4124;50.856;3.634;2022-09-03T11:53:05;6.00;;;5.13;;
8165;SDS011;4124;50.856;3.634;2022-09-03T11:55:32;6.00;;;4.90;;
8165;SDS011;4124;50.856;3.634;2022-09-03T11:58:09;5.80;;;4.90;;
8165;SDS011;4124;50.856;3.634;2022-09-03T12:00:35;7.00;;;5.27;;
8165;SDS011;4124;50.856;3.634;2022-09-03T12:03:02;6.40;;;4.40;;
8165;SDS011;4124;50.856;3.634;2022-09-03T12:05:41;6.70;;;4.90;;
8165;SDS011;4124;50.856;3.634;2022-09-03T12:13:27;7.63;;;5.10;;
8165;SDS011;4124;50.856;3.634;2022-09-03T12:18:24;5.30;;;4.40;;
8165;SDS011;4124;50.856;3.634;2022-09-03T12:25:52;4.77;;;4.27;;
8165;SDS011;4124;50.856;3.634;2022-09-03T12:28:18;5.87;;;5.27;;
8165;SDS011;4124;50.856;3.634;2022-09-03T12:30:45;5.67;;;4.40;;
8165;SDS011;4124;50.856;3.634;2022-09-03T12:33:11;4.97;;;4.57;;
8165;SDS011;4124;50.856;3.634;2022-09-03T12:35:38;5.73;;;4.93;;
8165;SDS011;4124;50.856;3.634;2022-09-03T12:38:03;5.87;;;5.10;;
8165;SDS011;4124;50.856;3.634;2022-09-03T12:40:28;4.97;;;4.47;;
8165;SDS011;4124;50.856;3.634;2022-09-03T12:42:54;6.07;;;4.57;;
8165;SDS011;4124;50.856;3.634;2022-09-03T12:45:21;4.47;;;4.07;;
8165;SDS011;4124;50.856;3.634;2022-09-03T12:47:47;4.93;;;4.53;;
8165;SDS011;4124;50.856;3.634;2022-09-03T12:50:13;4.77;;;4.37;;
8165;SDS011;4124;50.856;3.634;2022-09-03T12:52:51;4.73;;;4.10;;
8165;SDS011;4124;50.856;3.634;2022-09-03T13:00:29;4.80;;;4.40;;
8165;SDS011;4124;50.856;3.634;2022-09-03T13:03:06;5.93;;;4.60;;
8165;SDS011;4124;50.856;3.634;2022-09-03T13:05:34;6.43;;;4.80;;
8165;SDS011;4124;50.856;3.634;2022-09-03T13:10:38;4.80;;;4.30;;
8165;SDS011;4124;50.856;3.634;2022-09-03T13:16:11;5.83;;;4.80;;
8165;SDS011;4124;50.856;3.634;2022-09-03T13:28:35;4.43;;;4.03;;
8165;SDS011;4124;50.856;3.634;2022-09-03T13:31:09;5.13;;;4.60;;
8165;SDS011;4124;50.856;3.634;2022-09-03T13:33:43;4.80;;;4.20;;
8165;SDS011;4124;50.856;3.634;2022-09-03T13:36:17;4.40;;;3.93;;
8165;SDS011;4124;50.856;3.634;2022-09-03T13:38:51;4.50;;;4.10;;
8165;SDS011;4124;50.856;3.634;2022-09-03T13:41:20;4.50;;;4.10;;
8165;SDS011;4124;50.856;3.634;2022-09-03T13:43:56;4.30;;;3.90;;
8165;SDS011;4124;50.856;3.634;2022-09-03T13:46:30;4.17;;;3.87;;
8165;SDS011;4124;50.856;3.634;2022-09-03T13:50:00;4.13;;;3.73;;
8165;SDS011;4124;50.856;3.634;2022-09-03T13:54:58;5.00;;;4.50;;
8165;SDS011;4124;50.856;3.634;2022-09-03T14:03:03;4.60;;;3.83;;
8165;SDS011;4124;50.856;3.634;2022-09-03T14:10:58;3.70;;;3.40;;
8165;SDS011;4124;50.856;3.634;2022-09-03T14:15:59;4.10;;;3.70;;
8165;SDS011;4124;50.856;3.634;2022-09-03T14:21:00;4.03;;;3.67;;
8165;SDS011;4124;50.856;3.634;2022-09-03T14:23:42;4.50;;;3.80;;
8165;SDS011;4124;50.856;3.634;2022-09-03T14:26:14;4.20;;;3.63;;
8165;SDS011;4124;50.856;3.634;2022-09-03T14:28:42;4.70;;;3.80;;
8165;SDS011;4124;50.856;3.634;2022-09-03T14:41:32;5.33;;;3.73;;
8165;SDS011;4124;50.856;3.634;2022-09-03T14:46:37;5.33;;;3.87;;
8165;SDS011;4124;50.856;3.634;2022-09-03T14:49:25;4.40;;;3.63;;
8165;SDS011;4124;50.856;3.634;2022-09-03T14:52:21;3.90;;;3.60;;
8165;SDS011;4124;50.856;3.634;2022-09-03T14:55:01;4.17;;;3.77;;
8165;SDS011;4124;50.856;3.634;2022-09-03T15:07:34;3.77;;;3.47;;
8165;SDS011;4124;50.856;3.634;2022-09-03T15:10:46;5.33;;;3.70;;
8165;SDS011;4124;50.856;3.634;2022-09-03T15:12:52;3.70;;;3.40;;
8165;SDS011;4124;50.856;3.634;2022-09-03T15:15:29;3.93;;;3.60;;
8165;SDS011;4124;50.856;3.634;2022-09-03T15:20:31;6.17;;;3.60;;
8165;SDS011;4124;50.856;3.634;2022-09-03T15:23:17;4.03;;;3.63;;
8165;SDS011;4124;50.856;3.634;2022-09-03T15:31:00;4.10;;;3.20;;
8165;SDS011;4124;50.856;3.634;2022-09-03T15:40:51;3.47;;;3.17;;
8165;SDS011;4124;50.856;3.634;2022-09-03T15:43:21;3.73;;;3.43;;
8165;SDS011;4124;50.856;3.634;2022-09-03T15:48:20;3.67;;;3.37;;
8165;SDS011;4124;50.856;3.634;2022-09-03T15:55:49;3.60;;;3.30;;
8165;SDS011;4124;50.856;3.634;2022-09-03T15:58:36;3.37;;;3.07;;
8165;SDS011;4124;50.856;3.634;2022-09-03T16:01:05;3.80;;;3.50;;
8165;SDS011;4124;50.856;3.634;2022-09-03T16:06:15;4.60;;;3.50;;
8165;SDS011;4124;50.856;3.634;2022-09-03T16:08:48;3.37;;;3.17;;
8165;SDS011;4124;50.856;3.634;2022-09-03T16:11:31;3.67;;;3.37;;
8165;SDS011;4124;50.856;3.634;2022-09-03T16:19:17;3.63;;;3.33;;
8165;SDS011;4124;50.856;3.634;2022-09-03T16:21:50;3.90;;;3.50;;
8165;SDS011;4124;50.856;3.634;2022-09-03T16:24:23;3.00;;;2.70;;
8165;SDS011;4124;50.856;3.634;2022-09-03T16:29:41;3.23;;;2.93;;
8165;SDS011;4124;50.856;3.634;2022-09-03T16:39:48;3.90;;;3.60;;
8165;SDS011;4124;50.856;3.634;2022-09-03T16:49:45;3.37;;;3.07;;
8165;SDS011;4124;50.856;3.634;2022-09-03T17:00:08;3.77;;;3.47;;
8165;SDS011;4124;50.856;3.634;2022-09-03T17:02:41;2.87;;;2.63;;
8165;SDS011;4124;50.856;3.634;2022-09-03T17:10:44;3.03;;;2.83;;
8165;SDS011;4124;50.856;3.634;2022-09-03T17:13:14;2.90;;;2.70;;
8165;SDS011;4124;50.856;3.634;2022-09-03T17:20:56;3.43;;;3.13;;
8165;SDS011;4124;50.856;3.634;2022-09-03T17:26:09;3.20;;;3.00;;
8165;SDS011;4124;50.856;3.634;2022-09-03T17:33:45;3.37;;;3.00;;
8165;SDS011;4124;50.856;3.634;2022-09-03T17:36:23;3.27;;;3.07;;
8165;SDS011;4124;50.856;3.634;2022-09-03T17:44:15;3.03;;;2.80;;
8165;SDS011;4124;50.856;3.634;2022-09-03T17:52:08;7.77;;;3.00;;
8165;SDS011;4124;50.856;3.634;2022-09-03T17:54:44;3.90;;;2.93;;
8165;SDS011;4124;50.856;3.634;2022-09-03T17:57:16;199.07;;;184.37;;
8165;SDS011;4124;50.856;3.634;2022-09-03T18:07:43;201.47;;;186.50;;
8165;SDS011;4124;50.856;3.634;2022-09-03T18:10:18;198.53;;;184.03;;
8165;SDS011;4124;50.856;3.634;2022-09-03T18:13:03;864.83;;;779.67;;
8165;SDS011;4124;50.856;3.634;2022-09-03T18:15:38;618.97;;;426.83;;
8165;SDS011;4124;50.856;3.634;2022-09-03T18:18:11;616.27;;;429.40;;
8165;SDS011;4124;50.856;3.634;2022-09-03T18:20:51;621.00;;;431.70;;
8165;SDS011;4124;50.856;3.634;2022-09-03T18:23:45;617.10;;;428.70;;
8165;SDS011;4124;50.856;3.634;2022-09-03T18:26:32;617.07;;;428.80;;
8165;SDS011;4124;50.856;3.634;2022-09-03T18:29:34;619.17;;;429.70;;
8165;SDS011;4124;50.856;3.634;2022-09-03T18:32:19;613.93;;;424.27;;
8165;SDS011;4124;50.856;3.634;2022-09-03T18:35:03;610.47;;;420.83;;
8165;SDS011;4124;50.856;3.634;2022-09-03T18:37:46;616.87;;;429.97;;
8165;SDS011;4124;50.856;3.634;2022-09-03T18:40:35;616.77;;;429.10;;
8165;SDS011;4124;50.856;3.634;2022-09-03T18:49:17;622.73;;;436.07;;
8165;SDS011;4124;50.856;3.634;2022-09-03T18:52:10;618.83;;;432.23;;
8165;SDS011;4124;50.856;3.634;2022-09-03T19:00:55;619.70;;;431.30;;
8165;SDS011;4124;50.856;3.634;2022-09-03T19:09:44;617.07;;;429.67;;
8165;SDS011;4124;50.856;3.634;2022-09-03T19:15:19;616.80;;;428.70;;
8165;SDS011;4124;50.856;3.634;2022-09-03T19:18:09;615.93;;;430.00;;
8165;SDS011;4124;50.856;3.634;2022-09-03T19:23:48;618.10;;;431.73;;
8165;SDS011;4124;50.856;3.634;2022-09-03T19:26:37;618.03;;;431.10;;
8165;SDS011;4124;50.856;3.634;2022-09-03T19:30:08;617.10;;;430.23;;
8165;SDS011;4124;50.856;3.634;2022-09-03T19:32:36;613.10;;;425.33;;
8165;SDS011;4124;50.856;3.634;2022-09-03T19:35:22;621.03;;;430.43;;
8165;SDS011;4124;50.856;3.634;2022-09-03T19:38:14;611.53;;;424.87;;
8165;SDS011;4124;50.856;3.634;2022-09-03T19:46:50;620.40;;;430.40;;
8165;SDS011;4124;50.856;3.634;2022-09-03T19:55:23;170.63;;;154.90;;
8165;SDS011;4124;50.856;3.634;2022-09-03T19:58:08;169.07;;;153.47;;
8165;SDS011;4124;50.856;3.634;2022-09-03T20:00:53;168.73;;;153.20;;
8165;SDS011;4124;50.856;3.634;2022-09-03T20:03:36;170.93;;;155.20;;
8165;SDS011;4124;50.856;3.634;2022-09-03T20:06:20;170.10;;;154.30;;
8165;SDS011;4124;50.856;3.634;2022-09-03T20:09:07;170.53;;;155.10;;
8165;SDS011;4124;50.856;3.634;2022-09-03T20:11:53;170.13;;;154.60;;
8165;SDS011;4124;50.856;3.634;2022-09-03T20:14:19;169.87;;;154.40;;
8165;SDS011;4124;50.856;3.634;2022-09-03T20:24:31;170.37;;;154.77;;
8165;SDS011;4124;50.856;3.634;2022-09-03T20:37:49;8.93;;;3.90;;
8165;SDS011;4124;50.856;3.634;2022-09-03T20:45:34;4.30;;;3.77;;
8165;SDS011;4124;50.856;3.634;2022-09-03T20:48:06;5.57;;;3.43;;
8165;SDS011;4124;50.856;3.634;2022-09-03T20:50:39;4.50;;;3.67;;